Portada
METAR-TAF:

METAR-TAF

Aeropuertos :

Base Aérea de Getafe

Madrid-Getafe, España

latitud: 40-18N, longitud: 003-43W, altitud: 620 m

Observación

El informe se hizo hace 1 hora y 7 minutos, a las 06:00 UTC
Viento calma
Temperatura 13°C
Humedad 62%
Presión 1020 hPa
Visibilidad 10 km o más
sin nubes por debajo de 1500 m y sin presencia de cumulonimbus.

METAR: LEGT 250600Z 00000KT CAVOK 13/06 Q1020

Hora: 09:07 (07:07 UTC)

Pronóstico

El informe se hizo hace 2 horas y 7 minutos, a las 05:00 UTC
Pronóstico válido del 25 a las 06 UTC al 25 a las 15 UTC
Viento 6 kt del norte-noreste
Visibilidad 10 km o más
sin nubes por debajo de 1500 m y sin presencia de cumulonimbus.
Temporalmente
del 25 a las 09 UTC al 25 a las 15 UTC
Viento 18 kt del noreste con ráfagas de 28 kt

TAF: LEGT 250500Z 2506/2515 03006KT CAVOK TEMPO 2509/2515 04018G28KT

Observaciones y pronósticos meteorológicos de más de 4000 aeropuertos (mensajes METAR y TAF).

Los puntos amarillos y rojos representan las estaciones disponibles.

Ponga el ratón en el punto deseado para ver el nombre de la estación.

Haga clic para ver las observaciones y los pronósticos meteorológicos.

Para cambiar el mapa : haga clic en los botones verdes con una cruz de color negro para hacer un zoom, en el botón verde con un guión para alejar o en las flechas verdes para mapas adyacentes.


METAR-TAF: